sensor_id;sensor_type;location;lat;lon;timestamp;pressure;altitude;pressure_sealevel;temperature;humidity
44131;BME280;29792;48.726;9.248;2023-08-30T00:00:35;96336.41;;;14.54;100.00
44131;BME280;29792;48.726;9.248;2023-08-30T00:03:00;96337.38;;;14.52;100.00
44131;BME280;29792;48.726;9.248;2023-08-30T00:05:25;96334.78;;;14.52;100.00
44131;BME280;29792;48.726;9.248;2023-08-30T00:07:53;96335.59;;;14.53;100.00
44131;BME280;29792;48.726;9.248;2023-08-30T00:10:18;96329.63;;;14.52;100.00
44131;BME280;29792;48.726;9.248;2023-08-30T00:12:43;96330.59;;;14.51;100.00
44131;BME280;29792;48.726;9.248;2023-08-30T00:15:08;96325.44;;;14.51;100.00
44131;BME280;29792;48.726;9.248;2023-08-30T00:17:34;96328.03;;;14.51;100.00
44131;BME280;29792;48.726;9.248;2023-08-30T00:19:59;96322.88;;;14.51;100.00
44131;BME280;29792;48.726;9.248;2023-08-30T00:22:26;96316.94;;;14.51;100.00
44131;BME280;29792;48.726;9.248;2023-08-30T00:24:52;96320.94;;;14.54;100.00
44131;BME280;29792;48.726;9.248;2023-08-30T00:27:18;96320.94;;;14.54;100.00
44131;BME280;29792;48.726;9.248;2023-08-30T00:29:45;96315.94;;;14.52;100.00
44131;BME280;29792;48.726;9.248;2023-08-30T00:32:10;96320.28;;;14.51;100.00
44131;BME280;29792;48.726;9.248;2023-08-30T00:34:36;96310.78;;;14.52;100.00
44131;BME280;29792;48.726;9.248;2023-08-30T00:37:02;96304.66;;;14.53;100.00
44131;BME280;29792;48.726;9.248;2023-08-30T00:39:27;96307.25;;;14.53;100.00
44131;BME280;29792;48.726;9.248;2023-08-30T00:41:52;96292.75;;;14.52;100.00
44131;BME280;29792;48.726;9.248;2023-08-30T00:44:18;96291.16;;;14.51;100.00
44131;BME280;29792;48.726;9.248;2023-08-30T00:46:43;96297.09;;;14.51;100.00
44131;BME280;29792;48.726;9.248;2023-08-30T00:49:09;96293.91;;;14.49;100.00
44131;BME280;29792;48.726;9.248;2023-08-30T00:51:34;96291.47;;;14.48;100.00
44131;BME280;29792;48.726;9.248;2023-08-30T00:54:00;96290.66;;;14.47;100.00
44131;BME280;29792;48.726;9.248;2023-08-30T00:56:27;96285.53;;;14.47;100.00
44131;BME280;29792;48.726;9.248;2023-08-30T00:58:53;96283.25;;;14.44;100.00
44131;BME280;29792;48.726;9.248;2023-08-30T01:01:19;96289.56;;;14.42;100.00
44131;BME280;29792;48.726;9.248;2023-08-30T01:03:45;96283.91;;;14.38;100.00
44131;BME280;29792;48.726;9.248;2023-08-30T01:06:10;96279.69;;;14.37;100.00
44131;BME280;29792;48.726;9.248;2023-08-30T01:08:36;96272.94;;;14.36;100.00
44131;BME280;29792;48.726;9.248;2023-08-30T01:11:07;96274.72;;;14.36;100.00
44131;BME280;29792;48.726;9.248;2023-08-30T01:13:45;96265.22;;;14.36;100.00
44131;BME280;29792;48.726;9.248;2023-08-30T01:16:14;96264.41;;;14.36;100.00
44131;BME280;29792;48.726;9.248;2023-08-30T01:18:40;96266.81;;;14.37;100.00
44131;BME280;29792;48.726;9.248;2023-08-30T01:21:11;96262.63;;;14.36;100.00
44131;BME280;29792;48.726;9.248;2023-08-30T01:23:47;96265.22;;;14.36;100.00
44131;BME280;29792;48.726;9.248;2023-08-30T01:26:30;96263.59;;;14.35;100.00
44131;BME280;29792;48.726;9.248;2023-08-30T01:29:03;96265.41;;;14.35;100.00
44131;BME280;29792;48.726;9.248;2023-08-30T01:31:31;96258.63;;;14.34;100.00
44131;BME280;29792;48.726;9.248;2023-08-30T01:33:58;96262.19;;;14.33;100.00
44131;BME280;29792;48.726;9.248;2023-08-30T01:36:24;96261.53;;;14.31;100.00
44131;BME280;29792;48.726;9.248;2023-08-30T01:38:50;96263.28;;;14.30;100.00
44131;BME280;29792;48.726;9.248;2023-08-30T01:41:17;96268.59;;;14.29;100.00
44131;BME280;29792;48.726;9.248;2023-08-30T01:43:43;96264.41;;;14.28;100.00
44131;BME280;29792;48.726;9.248;2023-08-30T01:46:09;96270.38;;;14.28;100.00
44131;BME280;29792;48.726;9.248;2023-08-30T01:48:35;96270.38;;;14.28;100.00
44131;BME280;29792;48.726;9.248;2023-08-30T01:51:02;96268.31;;;14.24;100.00
44131;BME280;29792;48.726;9.248;2023-08-30T01:53:27;96265.88;;;14.22;100.00
44131;BME280;29792;48.726;9.248;2023-08-30T01:55:53;96268.47;;;14.22;100.00
44131;BME280;29792;48.726;9.248;2023-08-30T01:58:18;96272.66;;;14.23;100.00
44131;BME280;29792;48.726;9.248;2023-08-30T02:00:44;96277.97;;;14.22;100.00
44131;BME280;29792;48.726;9.248;2023-08-30T02:03:11;96267.81;;;14.20;100.00
44131;BME280;29792;48.726;9.248;2023-08-30T02:05:39;96276.34;;;14.21;100.00
44131;BME280;29792;48.726;9.248;2023-08-30T02:08:35;96284.22;;;14.19;100.00
44131;BME280;29792;48.726;9.248;2023-08-30T02:11:02;96286.81;;;14.19;100.00
44131;BME280;29792;48.726;9.248;2023-08-30T02:13:30;96289.38;;;14.19;100.00
44131;BME280;29792;48.726;9.248;2023-08-30T02:15:59;96281.03;;;14.17;100.00
44131;BME280;29792;48.726;9.248;2023-08-30T02:18:25;96282.00;;;14.16;100.00
44131;BME280;29792;48.726;9.248;2023-08-30T02:20:51;96286.50;;;14.14;100.00
44131;BME280;29792;48.726;9.248;2023-08-30T02:23:17;96277.16;;;14.13;100.00
44131;BME280;29792;48.726;9.248;2023-08-30T02:25:42;96289.72;;;14.16;100.00
44131;BME280;29792;48.726;9.248;2023-08-30T02:28:07;96284.56;;;14.16;100.00
44131;BME280;29792;48.726;9.248;2023-08-30T02:30:32;96279.44;;;14.16;100.00
44131;BME280;29792;48.726;9.248;2023-08-30T02:32:58;96282.81;;;14.17;100.00
44131;BME280;29792;48.726;9.248;2023-08-30T02:35:23;96283.63;;;14.17;100.00
44131;BME280;29792;48.726;9.248;2023-08-30T02:37:48;96282.66;;;14.18;100.00
44131;BME280;29792;48.726;9.248;2023-08-30T02:40:13;96282.47;;;14.20;100.00
44131;BME280;29792;48.726;9.248;2023-08-30T02:42:39;96284.22;;;14.19;100.00
44131;BME280;29792;48.726;9.248;2023-08-30T02:45:04;96280.06;;;14.18;100.00
44131;BME280;29792;48.726;9.248;2023-08-30T02:47:29;96276.69;;;14.18;100.00
44131;BME280;29792;48.726;9.248;2023-08-30T02:49:55;96277.66;;;14.17;100.00
44131;BME280;29792;48.726;9.248;2023-08-30T02:52:20;96278.47;;;14.17;100.00
44131;BME280;29792;48.726;9.248;2023-08-30T02:54:45;96288.75;;;14.17;100.00
44131;BME280;29792;48.726;9.248;2023-08-30T02:57:10;96277.81;;;14.15;100.00
44131;BME280;29792;48.726;9.248;2023-08-30T02:59:36;96285.38;;;14.17;100.00
44131;BME280;29792;48.726;9.248;2023-08-30T03:02:01;96287.00;;;14.18;100.00
44131;BME280;29792;48.726;9.248;2023-08-30T03:04:27;96291.34;;;14.17;100.00
44131;BME280;29792;48.726;9.248;2023-08-30T03:06:52;96295.84;;;14.15;100.00
44131;BME280;29792;48.726;9.248;2023-08-30T03:09:17;96289.25;;;14.12;100.00
44131;BME280;29792;48.726;9.248;2023-08-30T03:11:42;96282.47;;;14.11;100.00
44131;BME280;29792;48.726;9.248;2023-08-30T03:14:08;96282.66;;;14.10;100.00
44131;BME280;29792;48.726;9.248;2023-08-30T03:16:33;96280.25;;;14.08;100.00
44131;BME280;29792;48.726;9.248;2023-08-30T03:18:58;96278.63;;;14.07;100.00
44131;BME280;29792;48.726;9.248;2023-08-30T03:21:23;96273.78;;;14.04;100.00
44131;BME280;29792;48.726;9.248;2023-08-30T03:23:49;96276.72;;;14.01;100.00
44131;BME280;29792;48.726;9.248;2023-08-30T03:26:15;96272.53;;;14.00;100.00
44131;BME280;29792;48.726;9.248;2023-08-30T03:28:42;96272.53;;;14.00;100.00
44131;BME280;29792;48.726;9.248;2023-08-30T03:31:12;96270.91;;;13.99;100.00
44131;BME280;29792;48.726;9.248;2023-08-30T03:33:37;96260.75;;;13.98;100.00
44131;BME280;29792;48.726;9.248;2023-08-30T03:36:03;96268.66;;;13.96;100.00
44131;BME280;29792;48.726;9.248;2023-08-30T03:38:28;96267.84;;;13.96;100.00
44131;BME280;29792;48.726;9.248;2023-08-30T03:40:54;96268.03;;;13.94;100.00
44131;BME280;29792;48.726;9.248;2023-08-30T03:43:19;96271.56;;;13.93;100.00
44131;BME280;29792;48.726;9.248;2023-08-30T03:45:45;96258.84;;;13.92;100.00
44131;BME280;29792;48.726;9.248;2023-08-30T03:48:11;96259.81;;;13.91;100.00
44131;BME280;29792;48.726;9.248;2023-08-30T03:50:36;96257.38;;;13.89;100.00
44131;BME280;29792;48.726;9.248;2023-08-30T03:53:01;96259.50;;;13.86;100.00
44131;BME280;29792;48.726;9.248;2023-08-30T03:55:27;96261.44;;;13.84;100.00
44131;BME280;29792;48.726;9.248;2023-08-30T03:57:52;96265.13;;;13.81;100.00
44131;BME280;29792;48.726;9.248;2023-08-30T04:00:17;96263.66;;;13.79;100.00
44131;BME280;29792;48.726;9.248;2023-08-30T04:02:42;96268.03;;;13.78;100.00
44131;BME280;29792;48.726;9.248;2023-08-30T04:05:09;96272.38;;;13.78;100.00
44131;BME280;29792;48.726;9.248;2023-08-30T04:07:38;96275.91;;;13.77;100.00
44131;BME280;29792;48.726;9.248;2023-08-30T04:10:03;96274.13;;;13.77;100.00
44131;BME280;29792;48.726;9.248;2023-08-30T04:12:32;96278.47;;;13.77;100.00
44131;BME280;29792;48.726;9.248;2023-08-30T04:14:57;96276.88;;;13.75;100.00
44131;BME280;29792;48.726;9.248;2023-08-30T04:17:22;96273.34;;;13.77;100.00
44131;BME280;29792;48.726;9.248;2023-08-30T04:19:51;96270.75;;;13.77;100.00
44131;BME280;29792;48.726;9.248;2023-08-30T04:22:16;96265.63;;;13.77;100.00
44131;BME280;29792;48.726;9.248;2023-08-30T04:24:42;96260.31;;;13.78;100.00
44131;BME280;29792;48.726;9.248;2023-08-30T04:27:07;96261.72;;;13.81;100.00
44131;BME280;29792;48.726;9.248;2023-08-30T04:29:32;96273.50;;;13.83;100.00
44131;BME280;29792;48.726;9.248;2023-08-30T04:31:57;96270.09;;;13.83;100.00
44131;BME280;29792;48.726;9.248;2023-08-30T04:34:23;96273.50;;;13.83;100.00
44131;BME280;29792;48.726;9.248;2023-08-30T04:36:48;96273.50;;;13.83;100.00
44131;BME280;29792;48.726;9.248;2023-08-30T04:39:13;96271.72;;;13.84;100.00
44131;BME280;29792;48.726;9.248;2023-08-30T04:41:39;96276.06;;;13.83;100.00
44131;BME280;29792;48.726;9.248;2023-08-30T04:44:04;96274.44;;;13.82;100.00
44131;BME280;29792;48.726;9.248;2023-08-30T04:46:29;96282.31;;;13.81;100.00
44131;BME280;29792;48.726;9.248;2023-08-30T04:48:55;96284.59;;;13.75;100.00
44131;BME280;29792;48.726;9.248;2023-08-30T04:51:20;96278.13;;;13.71;100.00
44131;BME280;29792;48.726;9.248;2023-08-30T04:53:45;96276.53;;;13.70;100.00
44131;BME280;29792;48.726;9.248;2023-08-30T04:56:12;96272.38;;;13.69;100.00
44131;BME280;29792;48.726;9.248;2023-08-30T04:58:38;96271.38;;;13.70;100.00
44131;BME280;29792;48.726;9.248;2023-08-30T05:01:03;96269.78;;;13.69;100.00
44131;BME280;29792;48.726;9.248;2023-08-30T05:03:28;96262.06;;;13.69;100.00
44131;BME280;29792;48.726;9.248;2023-08-30T05:05:54;96262.06;;;13.69;100.00
44131;BME280;29792;48.726;9.248;2023-08-30T05:08:19;96264.66;;;13.69;100.00
44131;BME280;29792;48.726;9.248;2023-08-30T05:10:44;96262.06;;;13.69;100.00
44131;BME280;29792;48.726;9.248;2023-08-30T05:13:11;96263.84;;;13.69;100.00
44131;BME280;29792;48.726;9.248;2023-08-30T05:15:37;96270.41;;;13.71;100.00
44131;BME280;29792;48.726;9.248;2023-08-30T05:18:02;96266.22;;;13.70;100.00
44131;BME280;29792;48.726;9.248;2023-08-30T05:20:28;96264.00;;;13.67;100.00
44131;BME280;29792;48.726;9.248;2023-08-30T05:22:53;96267.69;;;13.65;100.00
44131;BME280;29792;48.726;9.248;2023-08-30T05:25:18;96261.88;;;13.63;100.00
44131;BME280;29792;48.726;9.248;2023-08-30T05:27:43;96262.53;;;13.65;100.00
44131;BME280;29792;48.726;9.248;2023-08-30T05:30:09;96259.00;;;13.66;100.00
44131;BME280;29792;48.726;9.248;2023-08-30T05:32:35;96255.47;;;13.67;100.00
44131;BME280;29792;48.726;9.248;2023-08-30T05:35:00;96260.31;;;13.70;100.00
44131;BME280;29792;48.726;9.248;2023-08-30T05:37:25;96259.16;;;13.72;100.00
44131;BME280;29792;48.726;9.248;2023-08-30T05:39:50;96256.28;;;13.75;100.00
44131;BME280;29792;48.726;9.248;2023-08-30T05:42:16;96250.97;;;13.77;100.00
44131;BME280;29792;48.726;9.248;2023-08-30T05:44:41;96257.53;;;13.80;100.00
44131;BME280;29792;48.726;9.248;2023-08-30T05:47:06;96257.88;;;13.85;100.00
44131;BME280;29792;48.726;9.248;2023-08-30T05:49:31;96264.31;;;13.89;100.00
44131;BME280;29792;48.726;9.248;2023-08-30T05:51:57;96264.81;;;13.92;100.00
44131;BME280;29792;48.726;9.248;2023-08-30T05:54:22;96264.47;;;13.95;100.00
44131;BME280;29792;48.726;9.248;2023-08-30T05:56:47;96264.16;;;13.98;100.00
44131;BME280;29792;48.726;9.248;2023-08-30T05:59:12;96262.38;;;13.99;100.00
44131;BME280;29792;48.726;9.248;2023-08-30T06:01:38;96254.50;;;14.00;100.00
44131;BME280;29792;48.726;9.248;2023-08-30T06:04:03;96250.00;;;14.02;100.00
44131;BME280;29792;48.726;9.248;2023-08-30T06:06:29;96259.16;;;14.05;100.00
44131;BME280;29792;48.726;9.248;2023-08-30T06:08:54;96264.63;;;14.02;100.00
44131;BME280;29792;48.726;9.248;2023-08-30T06:11:20;96265.59;;;14.01;100.00
44131;BME280;29792;48.726;9.248;2023-08-30T06:13:45;96267.22;;;14.02;100.00
44131;BME280;29792;48.726;9.248;2023-08-30T06:16:10;96274.75;;;14.03;100.00
44131;BME280;29792;48.726;9.248;2023-08-30T06:18:35;96272.97;;;14.04;100.00
44131;BME280;29792;48.726;9.248;2023-08-30T06:21:02;96270.59;;;14.02;100.00
44131;BME280;29792;48.726;9.248;2023-08-30T06:23:29;96268.63;;;14.04;100.00
44131;BME280;29792;48.726;9.248;2023-08-30T06:25:57;96266.72;;;14.06;100.00
44131;BME280;29792;48.726;9.248;2023-08-30T06:28:23;96268.16;;;14.09;100.00
44131;BME280;29792;48.726;9.248;2023-08-30T06:30:49;96277.66;;;14.08;100.00
44131;BME280;29792;48.726;9.248;2023-08-30T06:33:14;96284.59;;;14.08;100.00
44131;BME280;29792;48.726;9.248;2023-08-30T06:35:39;96271.56;;;14.09;100.00
44131;BME280;29792;48.726;9.248;2023-08-30T06:38:05;96276.69;;;14.09;100.00
44131;BME280;29792;48.726;9.248;2023-08-30T06:40:30;96268.00;;;14.10;100.00
44131;BME280;29792;48.726;9.248;2023-08-30T06:42:55;96268.78;;;14.11;100.00
44131;BME280;29792;48.726;9.248;2023-08-30T06:45:22;96275.75;;;14.10;100.00
44131;BME280;29792;48.726;9.248;2023-08-30T06:47:50;96274.44;;;14.14;100.00
44131;BME280;29792;48.726;9.248;2023-08-30T06:50:17;96274.28;;;14.16;100.00
44131;BME280;29792;48.726;9.248;2023-08-30T06:52:42;96281.03;;;14.17;100.00
44131;BME280;29792;48.726;9.248;2023-08-30T06:55:07;96279.28;;;14.18;100.00
44131;BME280;29792;48.726;9.248;2023-08-30T06:57:33;96277.50;;;14.18;100.00
44131;BME280;29792;48.726;9.248;2023-08-30T06:59:58;96275.88;;;14.17;100.00
44131;BME280;29792;48.726;9.248;2023-08-30T07:02:30;96275.09;;;14.17;100.00
44131;BME280;29792;48.726;9.248;2023-08-30T07:04:55;96275.88;;;14.17;100.00
44131;BME280;29792;48.726;9.248;2023-08-30T07:07:20;96269.78;;;14.18;100.00
44131;BME280;29792;48.726;9.248;2023-08-30T07:09:45;96272.00;;;14.21;100.00
44131;BME280;29792;48.726;9.248;2023-08-30T07:12:10;96270.22;;;14.22;100.00
44131;BME280;29792;48.726;9.248;2023-08-30T07:14:36;96272.50;;;14.25;100.00
44131;BME280;29792;48.726;9.248;2023-08-30T07:17:01;96268.75;;;14.27;100.00
44131;BME280;29792;48.726;9.248;2023-08-30T07:19:26;96277.66;;;14.25;100.00
44131;BME280;29792;48.726;9.248;2023-08-30T07:21:52;96268.94;;;14.26;100.00
44131;BME280;29792;48.726;9.248;2023-08-30T07:24:17;96265.41;;;14.27;100.00
44131;BME280;29792;48.726;9.248;2023-08-30T07:26:42;96266.19;;;14.27;100.00
44131;BME280;29792;48.726;9.248;2023-08-30T07:29:08;96267.63;;;14.30;100.00
44131;BME280;29792;48.726;9.248;2023-08-30T07:31:34;96263.94;;;14.32;100.00
44131;BME280;29792;48.726;9.248;2023-08-30T07:33:59;96270.56;;;14.35;100.00
44131;BME280;29792;48.726;9.248;2023-08-30T07:36:29;96270.72;;;14.33;100.00
44131;BME280;29792;48.726;9.248;2023-08-30T07:38:54;96276.47;;;14.35;100.00
44131;BME280;29792;48.726;9.248;2023-08-30T07:41:20;96275.34;;;14.38;100.00
44131;BME280;29792;48.726;9.248;2023-08-30T07:43:45;96274.25;;;14.40;100.00
44131;BME280;29792;48.726;9.248;2023-08-30T07:46:10;96272.34;;;14.42;100.00
44131;BME280;29792;48.726;9.248;2023-08-30T07:48:36;96272.34;;;14.42;100.00
44131;BME280;29792;48.726;9.248;2023-08-30T07:51:01;96278.28;;;14.43;100.00
44131;BME280;29792;48.726;9.248;2023-08-30T07:53:26;96286.19;;;14.41;100.00
44131;BME280;29792;48.726;9.248;2023-08-30T07:55:51;96285.38;;;14.41;100.00
44131;BME280;29792;48.726;9.248;2023-08-30T07:58:17;96271.84;;;14.39;100.00
44131;BME280;29792;48.726;9.248;2023-08-30T08:00:42;96276.84;;;14.40;100.00
44131;BME280;29792;48.726;9.248;2023-08-30T08:03:07;96278.09;;;14.44;100.00
44131;BME280;29792;48.726;9.248;2023-08-30T08:05:33;96274.09;;;14.50;100.00
44131;BME280;29792;48.726;9.248;2023-08-30T08:07:59;96277.75;;;14.56;100.00
44131;BME280;29792;48.726;9.248;2023-08-30T08:10:25;96279.69;;;14.54;100.00
44131;BME280;29792;48.726;9.248;2023-08-30T08:12:50;96277.13;;;14.54;100.00
44131;BME280;29792;48.726;9.248;2023-08-30T08:15:16;96279.53;;;14.55;100.00
44131;BME280;29792;48.726;9.248;2023-08-30T08:17:41;96275.84;;;14.58;100.00
44131;BME280;29792;48.726;9.248;2023-08-30T08:20:06;96276.44;;;14.60;100.00
44131;BME280;29792;48.726;9.248;2023-08-30T08:22:32;96279.66;;;14.62;100.00
44131;BME280;29792;48.726;9.248;2023-08-30T08:24:57;96273.38;;;14.64;100.00
44131;BME280;29792;48.726;9.248;2023-08-30T08:27:24;96270.50;;;14.67;100.00
44131;BME280;29792;48.726;9.248;2023-08-30T08:29:50;96272.06;;;14.68;100.00
44131;BME280;29792;48.726;9.248;2023-08-30T08:32:15;96273.38;;;14.72;100.00
44131;BME280;29792;48.726;9.248;2023-08-30T08:34:41;96272.84;;;14.77;100.00
44131;BME280;29792;48.726;9.248;2023-08-30T08:37:06;96268.00;;;14.82;100.00
44131;BME280;29792;48.726;9.248;2023-08-30T08:39:31;96274.28;;;14.87;100.00
44131;BME280;29792;48.726;9.248;2023-08-30T08:41:59;96270.22;;;14.93;100.00
44131;BME280;29792;48.726;9.248;2023-08-30T08:44:26;96274.41;;;14.94;100.00
44131;BME280;29792;48.726;9.248;2023-08-30T08:46:52;96275.84;;;14.97;100.00
44131;BME280;29792;48.726;9.248;2023-08-30T08:49:18;96273.72;;;15.00;100.00
44131;BME280;29792;48.726;9.248;2023-08-30T08:51:44;96274.69;;;15.07;100.00
44131;BME280;29792;48.726;9.248;2023-08-30T08:54:10;96269.81;;;15.12;100.00
44131;BME280;29792;48.726;9.248;2023-08-30T08:56:36;96265.91;;;15.16;100.00
44131;BME280;29792;48.726;9.248;2023-08-30T08:59:02;96261.53;;;15.17;100.00
44131;BME280;29792;48.726;9.248;2023-08-30T09:01:28;96265.56;;;15.19;100.00
44131;BME280;29792;48.726;9.248;2023-08-30T09:03:54;96265.72;;;15.18;100.00
44131;BME280;29792;48.726;9.248;2023-08-30T09:06:21;96267.19;;;15.20;100.00
44131;BME280;29792;48.726;9.248;2023-08-30T09:08:46;96263.75;;;15.28;100.00
44131;BME280;29792;48.726;9.248;2023-08-30T09:11:12;96264.50;;;15.37;100.00
44131;BME280;29792;48.726;9.248;2023-08-30T09:13:37;96263.97;;;15.41;100.00
44131;BME280;29792;48.726;9.248;2023-08-30T09:16:02;96269.28;;;15.48;100.00
44131;BME280;29792;48.726;9.248;2023-08-30T09:18:28;96263.75;;;15.51;100.00
44131;BME280;29792;48.726;9.248;2023-08-30T09:21:05;96264.09;;;15.56;100.00
44131;BME280;29792;48.726;9.248;2023-08-30T09:23:30;96271.16;;;15.62;100.00
44131;BME280;29792;48.726;9.248;2023-08-30T09:25:55;96273.84;;;15.69;100.00
44131;BME280;29792;48.726;9.248;2023-08-30T09:28:20;96272.53;;;15.73;100.00
44131;BME280;29792;48.726;9.248;2023-08-30T09:30:50;96276.19;;;15.78;100.00
44131;BME280;29792;48.726;9.248;2023-08-30T09:33:44;96269.53;;;15.84;100.00
44131;BME280;29792;48.726;9.248;2023-08-30T09:36:10;96265.44;;;15.89;100.00
44131;BME280;29792;48.726;9.248;2023-08-30T09:38:37;96266.53;;;15.95;100.00
44131;BME280;29792;48.726;9.248;2023-08-30T09:41:06;96271.63;;;16.03;100.00
44131;BME280;29792;48.726;9.248;2023-08-30T09:43:32;96274.31;;;16.10;100.00
44131;BME280;29792;48.726;9.248;2023-08-30T09:46:03;96273.09;;;16.20;100.00
44131;BME280;29792;48.726;9.248;2023-08-30T09:48:28;96268.66;;;16.29;100.00
44131;BME280;29792;48.726;9.248;2023-08-30T09:50:54;96265.19;;;16.36;100.00
44131;BME280;29792;48.726;9.248;2023-08-30T09:53:25;96262.69;;;16.43;100.00
44131;BME280;29792;48.726;9.248;2023-08-30T09:55:53;96260.53;;;16.47;100.00
44131;BME280;29792;48.726;9.248;2023-08-30T09:58:21;96253.25;;;16.50;100.00
44131;BME280;29792;48.726;9.248;2023-08-30T10:00:46;96262.06;;;16.56;100.00
44131;BME280;29792;48.726;9.248;2023-08-30T10:03:12;96255.44;;;16.61;100.00
44131;BME280;29792;48.726;9.248;2023-08-30T10:05:39;96248.72;;;16.67;100.00
44131;BME280;29792;48.726;9.248;2023-08-30T10:08:07;96255.75;;;16.73;100.00
44131;BME280;29792;48.726;9.248;2023-08-30T10:10:35;96249.69;;;16.81;100.00
44131;BME280;29792;48.726;9.248;2023-08-30T10:13:01;96242.63;;;16.89;100.00
44131;BME280;29792;48.726;9.248;2023-08-30T10:15:27;96240.91;;;16.96;100.00
44131;BME280;29792;48.726;9.248;2023-08-30T10:17:54;96237.41;;;17.04;100.00
44131;BME280;29792;48.726;9.248;2023-08-30T10:20:19;96238.28;;;17.11;100.00
44131;BME280;29792;48.726;9.248;2023-08-30T10:22:46;96234.44;;;17.22;100.00
44131;BME280;29792;48.726;9.248;2023-08-30T10:25:16;96235.47;;;17.27;100.00
44131;BME280;29792;48.726;9.248;2023-08-30T10:27:45;96225.00;;;17.35;100.00
44131;BME280;29792;48.726;9.248;2023-08-30T10:30:12;96222.75;;;17.47;100.00
44131;BME280;29792;48.726;9.248;2023-08-30T10:32:39;96219.84;;;17.57;100.00
44131;BME280;29792;48.726;9.248;2023-08-30T10:35:05;96219.38;;;17.68;100.00
44131;BME280;29792;48.726;9.248;2023-08-30T10:37:30;96215.06;;;17.75;100.00
44131;BME280;29792;48.726;9.248;2023-08-30T10:40:01;96223.50;;;17.83;100.00
44131;BME280;29792;48.726;9.248;2023-08-30T10:42:31;96214.22;;;17.96;100.00
44131;BME280;29792;48.726;9.248;2023-08-30T10:44:58;96221.28;;;18.08;100.00
44131;BME280;29792;48.726;9.248;2023-08-30T10:47:27;96213.94;;;18.12;100.00
44131;BME280;29792;48.726;9.248;2023-08-30T10:49:58;96215.38;;;18.21;100.00
44131;BME280;29792;48.726;9.248;2023-08-30T10:52:25;96216.22;;;18.28;100.00
44131;BME280;29792;48.726;9.248;2023-08-30T10:54:50;96215.72;;;18.39;100.00
44131;BME280;29792;48.726;9.248;2023-08-30T10:57:24;96212.34;;;18.45;100.00
44131;BME280;29792;48.726;9.248;2023-08-30T11:00:08;96212.31;;;18.39;100.00
44131;BME280;29792;48.726;9.248;2023-08-30T11:02:38;96213.66;;;18.35;100.00
44131;BME280;29792;48.726;9.248;2023-08-30T11:05:08;96207.31;;;18.37;100.00
44131;BME280;29792;48.726;9.248;2023-08-30T11:07:34;96213.31;;;18.38;100.00
44131;BME280;29792;48.726;9.248;2023-08-30T11:09:59;96209.13;;;18.43;100.00
44131;BME280;29792;48.726;9.248;2023-08-30T11:12:25;96207.78;;;18.47;100.00
44131;BME280;29792;48.726;9.248;2023-08-30T11:14:51;96214.16;;;18.51;100.00
44131;BME280;29792;48.726;9.248;2023-08-30T11:17:17;96213.22;;;18.59;100.00
44131;BME280;29792;48.726;9.248;2023-08-30T11:19:43;96198.72;;;18.64;100.00
44131;BME280;29792;48.726;9.248;2023-08-30T11:22:08;96201.53;;;18.70;100.00
44131;BME280;29792;48.726;9.248;2023-08-30T11:24:34;96194.75;;;18.75;100.00
44131;BME280;29792;48.726;9.248;2023-08-30T11:26:59;96196.56;;;18.81;100.00
44131;BME280;29792;48.726;9.248;2023-08-30T11:29:26;96203.16;;;18.84;100.00
44131;BME280;29792;48.726;9.248;2023-08-30T11:31:52;96191.41;;;18.88;100.00
44131;BME280;29792;48.726;9.248;2023-08-30T11:34:20;96193.41;;;18.92;100.00
44131;BME280;29792;48.726;9.248;2023-08-30T11:36:46;96192.25;;;19.01;100.00
44131;BME280;29792;48.726;9.248;2023-08-30T11:39:13;96194.06;;;19.08;100.00
44131;BME280;29792;48.726;9.248;2023-08-30T11:41:38;96190.88;;;19.12;99.55
44131;BME280;29792;48.726;9.248;2023-08-30T11:44:04;96188.69;;;19.16;99.12
44131;BME280;29792;48.726;9.248;2023-08-30T11:46:30;96194.06;;;19.14;97.37
44131;BME280;29792;48.726;9.248;2023-08-30T11:48:55;96197.47;;;19.15;98.08
44131;BME280;29792;48.726;9.248;2023-08-30T11:51:20;96190.66;;;19.14;97.39
44131;BME280;29792;48.726;9.248;2023-08-30T11:53:46;96188.47;;;19.11;96.10
44131;BME280;29792;48.726;9.248;2023-08-30T11:56:12;96186.69;;;19.11;96.33
44131;BME280;29792;48.726;9.248;2023-08-30T11:58:37;96192.69;;;19.12;96.37
44131;BME280;29792;48.726;9.248;2023-08-30T12:01:03;96188.06;;;19.14;96.12
44131;BME280;29792;48.726;9.248;2023-08-30T12:03:29;96186.88;;;19.16;96.07
44131;BME280;29792;48.726;9.248;2023-08-30T12:05:55;96193.50;;;19.19;96.31
44131;BME280;29792;48.726;9.248;2023-08-30T12:08:24;96196.47;;;19.22;96.05
44131;BME280;29792;48.726;9.248;2023-08-30T12:10:50;96205.28;;;19.21;95.66
44131;BME280;29792;48.726;9.248;2023-08-30T12:13:29;96204.06;;;19.17;95.33
44131;BME280;29792;48.726;9.248;2023-08-30T12:15:56;96210.03;;;19.04;94.11
44131;BME280;29792;48.726;9.248;2023-08-30T12:18:27;96213.34;;;18.85;92.34
44131;BME280;29792;48.726;9.248;2023-08-30T12:20:58;96212.09;;;18.68;91.64
44131;BME280;29792;48.726;9.248;2023-08-30T12:23:25;96229.91;;;18.50;92.37
44131;BME280;29792;48.726;9.248;2023-08-30T12:28:29;96222.88;;;18.09;95.14
44131;BME280;29792;48.726;9.248;2023-08-30T12:30:56;96222.94;;;17.88;95.96
44131;BME280;29792;48.726;9.248;2023-08-30T12:33:21;96209.22;;;17.66;97.03
44131;BME280;29792;48.726;9.248;2023-08-30T12:35:47;96213.41;;;17.52;98.45
44131;BME280;29792;48.726;9.248;2023-08-30T12:38:12;96207.94;;;17.41;99.71
44131;BME280;29792;48.726;9.248;2023-08-30T12:40:43;96195.31;;;17.31;100.00
44131;BME280;29792;48.726;9.248;2023-08-30T12:43:08;96193.47;;;17.25;100.00
44131;BME280;29792;48.726;9.248;2023-08-30T12:45:33;96186.41;;;17.19;100.00
44131;BME280;29792;48.726;9.248;2023-08-30T12:47:58;96187.97;;;17.13;100.00